sensor_id;sensor_type;location;lat;lon;timestamp;P1;P2;P0
73749;PMS7003;62058;48.406;-4.514;2023-02-28T00:02:24;0.00;0.00;0.00
73749;PMS7003;62058;48.406;-4.514;2023-02-28T00:04:49;2.33;0.00;0.00
73749;PMS7003;62058;48.406;-4.514;2023-02-28T00:07:18;0.00;0.00;0.00
73749;PMS7003;62058;48.406;-4.514;2023-02-28T00:09:43;4.00;0.00;0.00
73749;PMS7003;62058;48.406;-4.514;2023-02-28T00:12:08;1.67;0.00;0.00
73749;PMS7003;62058;48.406;-4.514;2023-02-28T00:14:35;1.00;0.00;0.00
73749;PMS7003;62058;48.406;-4.514;2023-02-28T00:17:00;0.00;0.00;0.00
73749;PMS7003;62058;48.406;-4.514;2023-02-28T00:19:25;0.00;0.00;0.00
73749;PMS7003;62058;48.406;-4.514;2023-02-28T00:21:51;0.00;0.00;0.00
73749;PMS7003;62058;48.406;-4.514;2023-02-28T00:24:16;0.00;0.00;0.00
73749;PMS7003;62058;48.406;-4.514;2023-02-28T00:26:41;1.00;0.00;0.00
73749;PMS7003;62058;48.406;-4.514;2023-02-28T00:29:06;0.00;0.00;0.00
73749;PMS7003;62058;48.406;-4.514;2023-02-28T00:31:32;0.00;0.00;0.00
73749;PMS7003;62058;48.406;-4.514;2023-02-28T00:33:57;0.25;0.00;0.00
73749;PMS7003;62058;48.406;-4.514;2023-02-28T00:36:23;0.00;0.00;0.00
73749;PMS7003;62058;48.406;-4.514;2023-02-28T00:38:48;0.00;0.00;0.00
73749;PMS7003;62058;48.406;-4.514;2023-02-28T00:41:13;0.00;0.00;0.00
73749;PMS7003;62058;48.406;-4.514;2023-02-28T00:43:39;0.00;0.00;0.00
73749;PMS7003;62058;48.406;-4.514;2023-02-28T00:46:04;0.00;0.00;0.00
73749;PMS7003;62058;48.406;-4.514;2023-02-28T00:48:30;0.00;0.00;0.00
73749;PMS7003;62058;48.406;-4.514;2023-02-28T00:50:56;1.00;0.00;0.00
73749;PMS7003;62058;48.406;-4.514;2023-02-28T00:53:21;0.00;0.00;0.00
73749;PMS7003;62058;48.406;-4.514;2023-02-28T00:55:47;3.00;0.00;0.00
73749;PMS7003;62058;48.406;-4.514;2023-02-28T00:58:12;0.00;0.00;0.00
73749;PMS7003;62058;48.406;-4.514;2023-02-28T01:00:37;0.00;0.00;0.00
73749;PMS7003;62058;48.406;-4.514;2023-02-28T01:03:02;3.00;0.00;0.00
73749;PMS7003;62058;48.406;-4.514;2023-02-28T01:05:28;4.00;0.00;0.00
73749;PMS7003;62058;48.406;-4.514;2023-02-28T01:07:53;0.00;0.00;0.00
73749;PMS7003;62058;48.406;-4.514;2023-02-28T01:10:18;0.00;0.00;0.00
73749;PMS7003;62058;48.406;-4.514;2023-02-28T01:12:45;2.50;0.00;0.00
73749;PMS7003;62058;48.406;-4.514;2023-02-28T01:15:10;0.67;0.00;0.00
73749;PMS7003;62058;48.406;-4.514;2023-02-28T01:17:36;3.25;0.00;0.00
73749;PMS7003;62058;48.406;-4.514;2023-02-28T01:20:01;3.00;0.00;0.00
73749;PMS7003;62058;48.406;-4.514;2023-02-28T01:22:27;0.00;0.00;0.00
73749;PMS7003;62058;48.406;-4.514;2023-02-28T01:24:53;2.50;0.00;0.00
73749;PMS7003;62058;48.406;-4.514;2023-02-28T01:27:18;0.25;0.00;0.00
73749;PMS7003;62058;48.406;-4.514;2023-02-28T01:29:44;1.00;0.00;0.00
73749;PMS7003;62058;48.406;-4.514;2023-02-28T01:32:09;4.00;0.00;0.00
73749;PMS7003;62058;48.406;-4.514;2023-02-28T01:34:34;2.00;0.00;0.00
73749;PMS7003;62058;48.406;-4.514;2023-02-28T01:37:00;3.00;3.00;3.00
73749;PMS7003;62058;48.406;-4.514;2023-02-28T01:39:26;0.00;0.00;0.00
73749;PMS7003;62058;48.406;-4.514;2023-02-28T01:41:51;0.00;0.00;0.00
73749;PMS7003;62058;48.406;-4.514;2023-02-28T01:47:00;1.00;0.00;0.00
73749;PMS7003;62058;48.406;-4.514;2023-02-28T01:49:25;0.00;0.00;0.00
73749;PMS7003;62058;48.406;-4.514;2023-02-28T01:51:51;2.00;0.33;0.00
73749;PMS7003;62058;48.406;-4.514;2023-02-28T01:54:24;0.00;0.00;0.00
73749;PMS7003;62058;48.406;-4.514;2023-02-28T01:57:02;0.00;0.00;0.00
73749;PMS7003;62058;48.406;-4.514;2023-02-28T01:59:30;4.00;2.25;2.00
73749;PMS7003;62058;48.406;-4.514;2023-02-28T02:01:57;1.50;0.00;0.00
73749;PMS7003;62058;48.406;-4.514;2023-02-28T02:04:23;5.00;2.50;2.50
73749;PMS7003;62058;48.406;-4.514;2023-02-28T02:06:51;0.00;0.00;0.00
73749;PMS7003;62058;48.406;-4.514;2023-02-28T02:09:16;0.00;0.00;0.00
73749;PMS7003;62058;48.406;-4.514;2023-02-28T02:11:42;1.00;0.00;0.00
73749;PMS7003;62058;48.406;-4.514;2023-02-28T02:21:54;1.00;1.00;1.00
73749;PMS7003;62058;48.406;-4.514;2023-02-28T02:34:43;0.25;0.00;0.00
73749;PMS7003;62058;48.406;-4.514;2023-02-28T02:37:15;2.50;0.00;0.00
73749;PMS7003;62058;48.406;-4.514;2023-02-28T02:42:25;1.75;1.00;1.00
73749;PMS7003;62058;48.406;-4.514;2023-02-28T02:44:58;1.75;1.00;1.00
73749;PMS7003;62058;48.406;-4.514;2023-02-28T02:47:25;1.00;0.00;0.00
73749;PMS7003;62058;48.406;-4.514;2023-02-28T02:49:53;0.00;0.00;0.00
73749;PMS7003;62058;48.406;-4.514;2023-02-28T02:52:22;2.00;0.00;0.00
73749;PMS7003;62058;48.406;-4.514;2023-02-28T02:54:48;3.25;0.00;0.00
73749;PMS7003;62058;48.406;-4.514;2023-02-28T02:57:22;0.00;0.00;0.00
73749;PMS7003;62058;48.406;-4.514;2023-02-28T02:59:48;1.25;0.00;0.00
73749;PMS7003;62058;48.406;-4.514;2023-02-28T03:02:14;0.00;0.00;0.00
73749;PMS7003;62058;48.406;-4.514;2023-02-28T03:04:51;0.00;0.00;0.00
73749;PMS7003;62058;48.406;-4.514;2023-02-28T03:07:17;2.25;0.00;0.00
73749;PMS7003;62058;48.406;-4.514;2023-02-28T03:09:52;1.33;0.00;0.00
73749;PMS7003;62058;48.406;-4.514;2023-02-28T03:12:18;0.00;0.00;0.00
73749;PMS7003;62058;48.406;-4.514;2023-02-28T03:17:37;0.00;0.00;0.00
73749;PMS7003;62058;48.406;-4.514;2023-02-28T03:20:10;2.00;0.00;0.00
73749;PMS7003;62058;48.406;-4.514;2023-02-28T03:27:42;0.25;0.00;0.00
73749;PMS7003;62058;48.406;-4.514;2023-02-28T03:30:56;2.50;0.00;0.00
73749;PMS7003;62058;48.406;-4.514;2023-02-28T03:33:07;0.00;0.00;0.00
73749;PMS7003;62058;48.406;-4.514;2023-02-28T03:35:37;3.00;1.75;1.75
73749;PMS7003;62058;48.406;-4.514;2023-02-28T03:38:05;0.00;0.00;0.00
73749;PMS7003;62058;48.406;-4.514;2023-02-28T03:40:32;3.50;2.00;2.00
73749;PMS7003;62058;48.406;-4.514;2023-02-28T03:43:02;2.75;1.25;1.25
73749;PMS7003;62058;48.406;-4.514;2023-02-28T03:45:29;0.00;0.00;0.00
73749;PMS7003;62058;48.406;-4.514;2023-02-28T03:48:01;0.00;0.00;0.00
73749;PMS7003;62058;48.406;-4.514;2023-02-28T03:50:29;0.00;0.00;0.00
73749;PMS7003;62058;48.406;-4.514;2023-02-28T03:55:32;0.25;0.00;0.00
73749;PMS7003;62058;48.406;-4.514;2023-02-28T04:00:41;1.00;0.00;0.00
73749;PMS7003;62058;48.406;-4.514;2023-02-28T04:03:09;0.00;0.00;0.00
73749;PMS7003;62058;48.406;-4.514;2023-02-28T04:05:43;0.00;0.00;0.00
73749;PMS7003;62058;48.406;-4.514;2023-02-28T04:08:10;3.25;1.00;1.00
73749;PMS7003;62058;48.406;-4.514;2023-02-28T04:10:35;0.00;0.00;0.00
73749;PMS7003;62058;48.406;-4.514;2023-02-28T04:13:00;0.00;0.00;0.00
73749;PMS7003;62058;48.406;-4.514;2023-02-28T04:15:26;0.00;0.00;0.00
73749;PMS7003;62058;48.406;-4.514;2023-02-28T04:17:52;0.00;0.00;0.00
73749;PMS7003;62058;48.406;-4.514;2023-02-28T04:20:17;1.75;1.75;1.75
73749;PMS7003;62058;48.406;-4.514;2023-02-28T04:22:43;0.50;0.00;0.00
73749;PMS7003;62058;48.406;-4.514;2023-02-28T04:25:08;0.00;0.00;0.00
73749;PMS7003;62058;48.406;-4.514;2023-02-28T04:27:33;0.00;0.00;0.00
73749;PMS7003;62058;48.406;-4.514;2023-02-28T04:29:59;0.25;0.00;0.00
73749;PMS7003;62058;48.406;-4.514;2023-02-28T04:32:24;0.00;0.00;0.00
73749;PMS7003;62058;48.406;-4.514;2023-02-28T04:34:49;0.33;0.00;0.00
73749;PMS7003;62058;48.406;-4.514;2023-02-28T04:37:14;0.00;0.00;0.00
73749;PMS7003;62058;48.406;-4.514;2023-02-28T04:39:40;1.00;0.00;0.00
73749;PMS7003;62058;48.406;-4.514;2023-02-28T04:42:05;3.25;1.00;1.00
73749;PMS7003;62058;48.406;-4.514;2023-02-28T04:44:31;0.75;0.00;0.00
73749;PMS7003;62058;48.406;-4.514;2023-02-28T04:46:56;0.00;0.00;0.00
73749;PMS7003;62058;48.406;-4.514;2023-02-28T04:49:22;0.00;0.00;0.00
73749;PMS7003;62058;48.406;-4.514;2023-02-28T04:51:47;2.25;0.00;0.00
73749;PMS7003;62058;48.406;-4.514;2023-02-28T04:54:13;0.75;0.75;0.75
73749;PMS7003;62058;48.406;-4.514;2023-02-28T04:56:38;0.00;0.00;0.00
73749;PMS7003;62058;48.406;-4.514;2023-02-28T04:59:03;0.00;0.00;0.00
73749;PMS7003;62058;48.406;-4.514;2023-02-28T05:01:30;2.50;0.00;0.00
73749;PMS7003;62058;48.406;-4.514;2023-02-28T05:03:56;0.00;0.00;0.00
73749;PMS7003;62058;48.406;-4.514;2023-02-28T05:06:22;1.25;1.00;1.00
73749;PMS7003;62058;48.406;-4.514;2023-02-28T05:08:48;0.00;0.00;0.00
73749;PMS7003;62058;48.406;-4.514;2023-02-28T05:11:21;0.75;0.00;0.00
73749;PMS7003;62058;48.406;-4.514;2023-02-28T05:13:48;2.75;0.50;0.50
73749;PMS7003;62058;48.406;-4.514;2023-02-28T05:16:14;0.00;0.00;0.00
73749;PMS7003;62058;48.406;-4.514;2023-02-28T05:18:39;3.75;0.00;0.00
73749;PMS7003;62058;48.406;-4.514;2023-02-28T05:21:05;0.00;0.00;0.00
73749;PMS7003;62058;48.406;-4.514;2023-02-28T05:23:30;0.00;0.00;0.00
73749;PMS7003;62058;48.406;-4.514;2023-02-28T05:25:56;1.75;0.25;0.25
73749;PMS7003;62058;48.406;-4.514;2023-02-28T05:28:21;0.00;0.00;0.00
73749;PMS7003;62058;48.406;-4.514;2023-02-28T05:30:47;0.25;0.25;0.25
73749;PMS7003;62058;48.406;-4.514;2023-02-28T05:33:12;0.00;0.00;0.00
73749;PMS7003;62058;48.406;-4.514;2023-02-28T05:35:39;2.25;1.00;1.00
73749;PMS7003;62058;48.406;-4.514;2023-02-28T05:38:04;0.00;0.00;0.00
73749;PMS7003;62058;48.406;-4.514;2023-02-28T05:40:29;0.00;0.00;0.00
73749;PMS7003;62058;48.406;-4.514;2023-02-28T05:42:55;0.00;0.00;0.00
73749;PMS7003;62058;48.406;-4.514;2023-02-28T05:45:20;1.00;0.00;0.00
73749;PMS7003;62058;48.406;-4.514;2023-02-28T05:47:45;0.33;0.00;0.00
73749;PMS7003;62058;48.406;-4.514;2023-02-28T05:50:11;0.25;0.25;0.25
73749;PMS7003;62058;48.406;-4.514;2023-02-28T05:52:36;0.00;0.00;0.00
73749;PMS7003;62058;48.406;-4.514;2023-02-28T05:55:02;0.00;0.00;0.00
73749;PMS7003;62058;48.406;-4.514;2023-02-28T05:57:27;0.00;0.00;0.00
73749;PMS7003;62058;48.406;-4.514;2023-02-28T05:59:53;3.00;0.00;0.00
73749;PMS7003;62058;48.406;-4.514;2023-02-28T06:02:18;1.00;0.00;0.00
73749;PMS7003;62058;48.406;-4.514;2023-02-28T06:04:43;1.50;0.00;0.00
73749;PMS7003;62058;48.406;-4.514;2023-02-28T06:07:09;0.00;0.00;0.00
73749;PMS7003;62058;48.406;-4.514;2023-02-28T06:09:34;1.00;1.00;1.00
73749;PMS7003;62058;48.406;-4.514;2023-02-28T06:12:00;0.75;0.00;0.00
73749;PMS7003;62058;48.406;-4.514;2023-02-28T06:14:27;1.00;0.00;0.00
73749;PMS7003;62058;48.406;-4.514;2023-02-28T06:16:53;4.50;1.75;1.75
73749;PMS7003;62058;48.406;-4.514;2023-02-28T06:19:18;0.00;0.00;0.00
73749;PMS7003;62058;48.406;-4.514;2023-02-28T06:21:43;2.00;1.00;1.00
73749;PMS7003;62058;48.406;-4.514;2023-02-28T06:24:09;0.00;0.00;0.00
73749;PMS7003;62058;48.406;-4.514;2023-02-28T06:26:35;0.25;0.00;0.00
73749;PMS7003;62058;48.406;-4.514;2023-02-28T06:29:00;3.00;2.00;2.00
73749;PMS7003;62058;48.406;-4.514;2023-02-28T06:31:25;0.00;0.00;0.00
73749;PMS7003;62058;48.406;-4.514;2023-02-28T06:33:51;3.00;0.00;0.00
73749;PMS7003;62058;48.406;-4.514;2023-02-28T06:36:16;0.75;0.00;0.00
73749;PMS7003;62058;48.406;-4.514;2023-02-28T06:38:41;0.00;0.00;0.00
73749;PMS7003;62058;48.406;-4.514;2023-02-28T06:41:07;0.00;0.00;0.00
73749;PMS7003;62058;48.406;-4.514;2023-02-28T06:43:34;6.75;4.25;4.25
73749;PMS7003;62058;48.406;-4.514;2023-02-28T06:46:01;0.00;0.00;0.00
73749;PMS7003;62058;48.406;-4.514;2023-02-28T06:48:27;2.50;2.50;2.00
73749;PMS7003;62058;48.406;-4.514;2023-02-28T06:51:00;1.50;1.50;1.50
73749;PMS7003;62058;48.406;-4.514;2023-02-28T06:53:26;0.25;0.25;0.25
73749;PMS7003;62058;48.406;-4.514;2023-02-28T06:55:51;0.33;0.00;0.00
73749;PMS7003;62058;48.406;-4.514;2023-02-28T06:58:16;0.33;0.33;0.33
73749;PMS7003;62058;48.406;-4.514;2023-02-28T07:00:44;0.00;0.00;0.00
73749;PMS7003;62058;48.406;-4.514;2023-02-28T07:03:10;2.00;1.00;1.00
73749;PMS7003;62058;48.406;-4.514;2023-02-28T07:05:36;3.25;3.25;3.00
73749;PMS7003;62058;48.406;-4.514;2023-02-28T07:08:03;5.00;4.75;4.50
73749;PMS7003;62058;48.406;-4.514;2023-02-28T07:10:28;5.50;1.50;1.50
73749;PMS7003;62058;48.406;-4.514;2023-02-28T07:12:54;1.00;1.00;1.00
73749;PMS7003;62058;48.406;-4.514;2023-02-28T07:15:19;5.33;2.33;2.33
73749;PMS7003;62058;48.406;-4.514;2023-02-28T07:17:44;3.33;3.33;2.33
73749;PMS7003;62058;48.406;-4.514;2023-02-28T07:20:10;8.33;6.67;6.33
73749;PMS7003;62058;48.406;-4.514;2023-02-28T07:22:35;7.75;6.25;6.25
73749;PMS7003;62058;48.406;-4.514;2023-02-28T07:25:00;3.00;3.00;3.00
73749;PMS7003;62058;48.406;-4.514;2023-02-28T07:27:26;2.33;2.33;2.33
73749;PMS7003;62058;48.406;-4.514;2023-02-28T07:29:51;6.00;4.00;4.00
73749;PMS7003;62058;48.406;-4.514;2023-02-28T07:32:17;2.50;2.50;2.50
73749;PMS7003;62058;48.406;-4.514;2023-02-28T07:34:43;6.75;3.50;3.50
73749;PMS7003;62058;48.406;-4.514;2023-02-28T07:37:09;3.00;0.75;0.75
73749;PMS7003;62058;48.406;-4.514;2023-02-28T07:39:34;3.00;3.00;3.00
73749;PMS7003;62058;48.406;-4.514;2023-02-28T07:41:59;7.00;7.00;7.00
73749;PMS7003;62058;48.406;-4.514;2023-02-28T07:44:25;5.50;3.50;3.25
73749;PMS7003;62058;48.406;-4.514;2023-02-28T07:46:51;3.75;3.75;3.50
73749;PMS7003;62058;48.406;-4.514;2023-02-28T07:49:17;2.00;2.00;2.00
73749;PMS7003;62058;48.406;-4.514;2023-02-28T07:51:43;1.75;1.50;1.50
73749;PMS7003;62058;48.406;-4.514;2023-02-28T07:54:08;7.00;3.00;3.00
73749;PMS7003;62058;48.406;-4.514;2023-02-28T07:56:33;12.00;8.33;6.67
73749;PMS7003;62058;48.406;-4.514;2023-02-28T07:58:58;8.33;8.33;7.33
73749;PMS7003;62058;48.406;-4.514;2023-02-28T08:01:24;13.00;10.67;10.00
73749;PMS7003;62058;48.406;-4.514;2023-02-28T08:03:49;9.33;8.00;7.67
73749;PMS7003;62058;48.406;-4.514;2023-02-28T08:06:16;3.00;3.00;3.00
73749;PMS7003;62058;48.406;-4.514;2023-02-28T08:08:41;7.50;5.25;5.00
73749;PMS7003;62058;48.406;-4.514;2023-02-28T08:11:06;7.67;3.33;3.33
73749;PMS7003;62058;48.406;-4.514;2023-02-28T08:13:33;12.67;9.00;8.00
73749;PMS7003;62058;48.406;-4.514;2023-02-28T08:16:00;5.25;4.75;4.75
73749;PMS7003;62058;48.406;-4.514;2023-02-28T08:18:26;5.25;4.00;4.00
73749;PMS7003;62058;48.406;-4.514;2023-02-28T08:20:51;5.33;4.00;4.00
73749;PMS7003;62058;48.406;-4.514;2023-02-28T08:23:16;6.67;3.33;3.33
73749;PMS7003;62058;48.406;-4.514;2023-02-28T08:25:41;6.33;4.00;4.00
73749;PMS7003;62058;48.406;-4.514;2023-02-28T08:28:07;11.75;7.50;7.25
73749;PMS7003;62058;48.406;-4.514;2023-02-28T08:30:32;6.50;5.00;5.00
73749;PMS7003;62058;48.406;-4.514;2023-02-28T08:32:57;10.25;6.50;6.50
73749;PMS7003;62058;48.406;-4.514;2023-02-28T08:35:23;9.25;8.00;8.00
73749;PMS7003;62058;48.406;-4.514;2023-02-28T08:37:48;12.00;6.25;6.00
73749;PMS7003;62058;48.406;-4.514;2023-02-28T08:40:14;10.25;10.00;9.00
73749;PMS7003;62058;48.406;-4.514;2023-02-28T08:42:43;19.00;12.25;12.25
73749;PMS7003;62058;48.406;-4.514;2023-02-28T08:45:08;17.00;13.50;11.50
73749;PMS7003;62058;48.406;-4.514;2023-02-28T08:47:34;7.25;6.50;6.25
73749;PMS7003;62058;48.406;-4.514;2023-02-28T08:49:59;12.00;9.67;9.00
73749;PMS7003;62058;48.406;-4.514;2023-02-28T08:52:24;14.33;12.00;11.67
73749;PMS7003;62058;48.406;-4.514;2023-02-28T08:54:49;15.00;7.75;7.25
73749;PMS7003;62058;48.406;-4.514;2023-02-28T08:57:15;21.67;15.33;14.00
73749;PMS7003;62058;48.406;-4.514;2023-02-28T08:59:40;17.67;14.33;12.33
73749;PMS7003;62058;48.406;-4.514;2023-02-28T09:02:05;19.33;13.67;12.33
73749;PMS7003;62058;48.406;-4.514;2023-02-28T09:04:30;19.00;15.33;14.00
73749;PMS7003;62058;48.406;-4.514;2023-02-28T09:06:56;19.00;16.00;15.00
73749;PMS7003;62058;48.406;-4.514;2023-02-28T09:09:21;32.00;21.67;19.67
73749;PMS7003;62058;48.406;-4.514;2023-02-28T09:11:46;16.00;14.00;11.00
73749;PMS7003;62058;48.406;-4.514;2023-02-28T09:14:11;20.33;15.67;13.33
73749;PMS7003;62058;48.406;-4.514;2023-02-28T09:16:37;19.50;19.50;17.00
73749;PMS7003;62058;48.406;-4.514;2023-02-28T09:19:02;21.33;19.00;17.67
73749;PMS7003;62058;48.406;-4.514;2023-02-28T09:21:27;19.33;19.33;16.33
73749;PMS7003;62058;48.406;-4.514;2023-02-28T09:23:53;20.50;18.75;16.00
73749;PMS7003;62058;48.406;-4.514;2023-02-28T09:26:20;19.75;17.50;15.50
73749;PMS7003;62058;48.406;-4.514;2023-02-28T09:28:46;18.00;17.00;15.00
73749;PMS7003;62058;48.406;-4.514;2023-02-28T09:31:18;24.50;16.25;16.25
73749;PMS7003;62058;48.406;-4.514;2023-02-28T09:33:48;23.00;19.25;16.50
73749;PMS7003;62058;48.406;-4.514;2023-02-28T09:36:13;20.50;19.25;16.75
73749;PMS7003;62058;48.406;-4.514;2023-02-28T09:38:39;21.67;20.00;16.67
73749;PMS7003;62058;48.406;-4.514;2023-02-28T09:41:24;18.25;15.25;14.25
73749;PMS7003;62058;48.406;-4.514;2023-02-28T09:43:52;19.00;17.25;13.75
73749;PMS7003;62058;48.406;-4.514;2023-02-28T09:48:53;24.00;16.75;14.00
73749;PMS7003;62058;48.406;-4.514;2023-02-28T09:53:52;21.00;16.75;13.50
73749;PMS7003;62058;48.406;-4.514;2023-02-28T09:56:22;21.50;19.50;18.00
73749;PMS7003;62058;48.406;-4.514;2023-02-28T09:58:54;20.25;17.75;14.00
73749;PMS7003;62058;48.406;-4.514;2023-02-28T10:01:24;21.25;17.75;16.00
73749;PMS7003;62058;48.406;-4.514;2023-02-28T10:04:00;19.50;17.75;14.25
73749;PMS7003;62058;48.406;-4.514;2023-02-28T10:06:29;31.25;21.50;17.75
73749;PMS7003;62058;48.406;-4.514;2023-02-28T10:11:23;22.33;16.67;14.67
73749;PMS7003;62058;48.406;-4.514;2023-02-28T10:16:38;20.50;18.25;16.00
73749;PMS7003;62058;48.406;-4.514;2023-02-28T10:19:09;24.75;20.50;17.00
73749;PMS7003;62058;48.406;-4.514;2023-02-28T10:21:39;21.00;16.75;14.00
73749;PMS7003;62058;48.406;-4.514;2023-02-28T10:26:50;17.50;16.50;14.25
73749;PMS7003;62058;48.406;-4.514;2023-02-28T10:29:17;18.50;17.25;14.00
73749;PMS7003;62058;48.406;-4.514;2023-02-28T10:31:43;23.75;20.25;16.75
73749;PMS7003;62058;48.406;-4.514;2023-02-28T10:34:08;25.67;17.67;15.67
73749;PMS7003;62058;48.406;-4.514;2023-02-28T10:36:36;32.25;25.00;19.50
73749;PMS7003;62058;48.406;-4.514;2023-02-28T10:39:02;25.00;22.00;20.67
73749;PMS7003;62058;48.406;-4.514;2023-02-28T10:41:47;26.25;23.25;20.25
73749;PMS7003;62058;48.406;-4.514;2023-02-28T10:44:22;26.33;20.00;18.00
73749;PMS7003;62058;48.406;-4.514;2023-02-28T10:46:48;23.00;18.25;16.00
73749;PMS7003;62058;48.406;-4.514;2023-02-28T10:49:20;23.75;19.50;18.25
73749;PMS7003;62058;48.406;-4.514;2023-02-28T10:51:45;23.50;16.75;14.75
73749;PMS7003;62058;48.406;-4.514;2023-02-28T10:54:18;15.50;15.50;14.00
73749;PMS7003;62058;48.406;-4.514;2023-02-28T10:56:44;19.00;18.25;16.00
73749;PMS7003;62058;48.406;-4.514;2023-02-28T11:01:42;27.67;22.67;19.33
73749;PMS7003;62058;48.406;-4.514;2023-02-28T11:07:01;21.50;18.50;17.00
73749;PMS7003;62058;48.406;-4.514;2023-02-28T11:09:28;23.00;19.00;17.00
73749;PMS7003;62058;48.406;-4.514;2023-02-28T11:11:55;26.00;21.25;18.25
73749;PMS7003;62058;48.406;-4.514;2023-02-28T11:16:46;26.00;20.00;17.33
73749;PMS7003;62058;48.406;-4.514;2023-02-28T11:19:33;15.50;13.00;10.75
73749;PMS7003;62058;48.406;-4.514;2023-02-28T11:22:00;21.75;18.50;16.75
73749;PMS7003;62058;48.406;-4.514;2023-02-28T11:24:27;27.50;22.00;19.75
73749;PMS7003;62058;48.406;-4.514;2023-02-28T11:26:53;22.00;20.50;17.50
73749;PMS7003;62058;48.406;-4.514;2023-02-28T11:34:29;21.75;20.25;16.50
73749;PMS7003;62058;48.406;-4.514;2023-02-28T11:36:55;20.50;17.25;14.00
73749;PMS7003;62058;48.406;-4.514;2023-02-28T11:39:21;20.25;19.25;16.00
73749;PMS7003;62058;48.406;-4.514;2023-02-28T11:52:01;12.33;11.00;10.00
73749;PMS7003;62058;48.406;-4.514;2023-02-28T12:02:34;13.75;9.75;9.00
73749;PMS7003;62058;48.406;-4.514;2023-02-28T12:10:17;13.67;10.00;9.67
73749;PMS7003;62058;48.406;-4.514;2023-02-28T12:12:51;12.00;8.75;8.75
73749;PMS7003;62058;48.406;-4.514;2023-02-28T12:15:27;12.50;8.00;7.75
73749;PMS7003;62058;48.406;-4.514;2023-02-28T12:23:25;9.00;9.00;8.00
73749;PMS7003;62058;48.406;-4.514;2023-02-28T12:28:29;6.75;5.00;4.75
73749;PMS7003;62058;48.406;-4.514;2023-02-28T12:30:59;6.50;3.00;2.00
73749;PMS7003;62058;48.406;-4.514;2023-02-28T12:33:28;7.00;5.25;5.00
73749;PMS7003;62058;48.406;-4.514;2023-02-28T12:35:58;5.00;5.00;5.00
73749;PMS7003;62058;48.406;-4.514;2023-02-28T12:43:17;5.00;3.75;3.75
73749;PMS7003;62058;48.406;-4.514;2023-02-28T12:45:48;4.75;4.75;4.00
73749;PMS7003;62058;48.406;-4.514;2023-02-28T12:48:18;4.75;4.75;4.25
73749;PMS7003;62058;48.406;-4.514;2023-02-28T12:50:47;2.75;2.25;2.00
73749;PMS7003;62058;48.406;-4.514;2023-02-28T12:53:15;3.00;3.00;3.00
73749;PMS7003;62058;48.406;-4.514;2023-02-28T12:55:50;5.00;5.00;4.75
73749;PMS7003;62058;48.406;-4.514;2023-02-28T12:58:25;4.25;2.50;2.50
73749;PMS7003;62058;48.406;-4.514;2023-02-28T13:09:03;3.00;1.67;1.67
73749;PMS7003;62058;48.406;-4.514;2023-02-28T13:14:03;1.00;1.00;1.00
73749;PMS7003;62058;48.406;-4.514;2023-02-28T13:17:30;1.00;1.00;1.00
73749;PMS7003;62058;48.406;-4.514;2023-02-28T13:19:25;4.25;1.00;1.00
73749;PMS7003;62058;48.406;-4.514;2023-02-28T13:21:51;1.25;1.25;1.25
73749;PMS7003;62058;48.406;-4.514;2023-02-28T13:34:33;5.75;3.00;3.00
73749;PMS7003;62058;48.406;-4.514;2023-02-28T13:53:23;1.25;1.25;1.25
73749;PMS7003;62058;48.406;-4.514;2023-02-28T14:00:35;1.00;1.00;1.00
73749;PMS7003;62058;48.406;-4.514;2023-02-28T14:05:42;5.00;2.00;2.00
73749;PMS7003;62058;48.406;-4.514;2023-02-28T14:08:18;0.25;0.25;0.25
73749;PMS7003;62058;48.406;-4.514;2023-02-28T14:10:49;0.75;0.75;0.75
73749;PMS7003;62058;48.406;-4.514;2023-02-28T14:16:00;1.25;1.00;1.00
73749;PMS7003;62058;48.406;-4.514;2023-02-28T14:18:30;2.00;1.00;1.00
73749;PMS7003;62058;48.406;-4.514;2023-02-28T14:31:13;0.50;0.50;0.50
73749;PMS7003;62058;48.406;-4.514;2023-02-28T14:36:35;2.00;1.00;0.75
73749;PMS7003;62058;48.406;-4.514;2023-02-28T14:39:22;0.75;0.75;0.75
73749;PMS7003;62058;48.406;-4.514;2023-02-28T14:41:46;2.00;0.25;0.25
73749;PMS7003;62058;48.406;-4.514;2023-02-28T14:44:22;0.00;0.00;0.00
73749;PMS7003;62058;48.406;-4.514;2023-02-28T14:46:48;1.00;1.00;1.00
73749;PMS7003;62058;48.406;-4.514;2023-02-28T14:49:30;5.50;1.00;0.00
73749;PMS7003;62058;48.406;-4.514;2023-02-28T14:52:06;3.00;1.00;1.00
73749;PMS7003;62058;48.406;-4.514;2023-02-28T14:54:35;1.00;1.00;1.00
73749;PMS7003;62058;48.406;-4.514;2023-02-28T14:57:00;0.00;0.00;0.00
73749;PMS7003;62058;48.406;-4.514;2023-02-28T14:59:33;2.75;0.00;0.00
73749;PMS7003;62058;48.406;-4.514;2023-02-28T15:02:15;0.50;0.00;0.00
73749;PMS7003;62058;48.406;-4.514;2023-02-28T15:04:41;0.00;0.00;0.00
73749;PMS7003;62058;48.406;-4.514;2023-02-28T15:07:13;1.50;1.00;1.00
73749;PMS7003;62058;48.406;-4.514;2023-02-28T15:09:39;1.00;1.00;1.00
73749;PMS7003;62058;48.406;-4.514;2023-02-28T15:12:04;0.00;0.00;0.00
73749;PMS7003;62058;48.406;-4.514;2023-02-28T15:14:30;1.75;1.00;1.00
73749;PMS7003;62058;48.406;-4.514;2023-02-28T15:16:57;2.00;1.00;1.00
73749;PMS7003;62058;48.406;-4.514;2023-02-28T15:19:29;3.00;1.00;1.00
73749;PMS7003;62058;48.406;-4.514;2023-02-28T15:24:37;0.50;0.50;0.50
73749;PMS7003;62058;48.406;-4.514;2023-02-28T15:27:07;3.00;2.25;2.25
73749;PMS7003;62058;48.406;-4.514;2023-02-28T15:29:44;1.00;0.50;0.50
73749;PMS7003;62058;48.406;-4.514;2023-02-28T15:32:20;3.00;1.25;1.25
73749;PMS7003;62058;48.406;-4.514;2023-02-28T15:34:48;2.00;0.50;0.50
73749;PMS7003;62058;48.406;-4.514;2023-02-28T15:39:51;0.00;0.00;0.00
73749;PMS7003;62058;48.406;-4.514;2023-02-28T15:42:21;0.00;0.00;0.00
73749;PMS7003;62058;48.406;-4.514;2023-02-28T15:44:47;0.00;0.00;0.00
73749;PMS7003;62058;48.406;-4.514;2023-02-28T15:47:22;3.25;0.50;0.50
73749;PMS7003;62058;48.406;-4.514;2023-02-28T15:52:14;1.00;1.00;1.00
73749;PMS7003;62058;48.406;-4.514;2023-02-28T15:54:40;0.00;0.00;0.00
73749;PMS7003;62058;48.406;-4.514;2023-02-28T15:57:07;0.00;0.00;0.00
73749;PMS7003;62058;48.406;-4.514;2023-02-28T15:59:38;2.00;0.00;0.00
73749;PMS7003;62058;48.406;-4.514;2023-02-28T16:02:17;0.00;0.00;0.00
73749;PMS7003;62058;48.406;-4.514;2023-02-28T16:07:26;1.75;0.00;0.00
73749;PMS7003;62058;48.406;-4.514;2023-02-28T16:09:52;1.50;0.00;0.00
73749;PMS7003;62058;48.406;-4.514;2023-02-28T16:12:18;0.00;0.00;0.00
73749;PMS7003;62058;48.406;-4.514;2023-02-28T16:14:44;3.00;0.00;0.00
73749;PMS7003;62058;48.406;-4.514;2023-02-28T16:17:20;2.75;0.00;0.00
73749;PMS7003;62058;48.406;-4.514;2023-02-28T16:19:46;2.00;0.00;0.00
73749;PMS7003;62058;48.406;-4.514;2023-02-28T16:22:11;1.00;1.00;1.00
73749;PMS7003;62058;48.406;-4.514;2023-02-28T16:24:37;0.33;0.00;0.00
73749;PMS7003;62058;48.406;-4.514;2023-02-28T16:27:03;1.00;0.00;0.00
73749;PMS7003;62058;48.406;-4.514;2023-02-28T16:29:30;1.25;1.00;1.00
73749;PMS7003;62058;48.406;-4.514;2023-02-28T16:31:57;3.25;1.00;1.00
73749;PMS7003;62058;48.406;-4.514;2023-02-28T16:34:23;2.75;1.00;1.00
73749;PMS7003;62058;48.406;-4.514;2023-02-28T16:36:49;1.00;1.00;1.00
73749;PMS7003;62058;48.406;-4.514;2023-02-28T16:39:14;2.50;1.00;1.00
73749;PMS7003;62058;48.406;-4.514;2023-02-28T16:41:43;1.00;1.00;1.00
73749;PMS7003;62058;48.406;-4.514;2023-02-28T16:44:10;1.25;0.00;0.00
73749;PMS7003;62058;48.406;-4.514;2023-02-28T16:46:37;2.75;1.50;1.00
73749;PMS7003;62058;48.406;-4.514;2023-02-28T16:49:03;0.00;0.00;0.00
73749;PMS7003;62058;48.406;-4.514;2023-02-28T16:51:28;2.33;0.00;0.00
73749;PMS7003;62058;48.406;-4.514;2023-02-28T16:53:53;0.25;0.25;0.25
73749;PMS7003;62058;48.406;-4.514;2023-02-28T16:56:19;2.00;1.00;1.00